sensor_id;sensor_type;location;lat;lon;timestamp;pressure;altitude;pressure_sealevel;temperature;humidity
81352;BME280;70809;52.184;13.422;2024-01-11T00:00:44;102886.56;;;-9.49;79.25
81352;BME280;70809;52.184;13.422;2024-01-11T00:01:46;102876.16;;;-9.71;79.86
81352;BME280;70809;52.184;13.422;2024-01-11T00:02:47;102880.81;;;-9.61;79.74
81352;BME280;70809;52.184;13.422;2024-01-11T00:03:49;102876.84;;;-9.52;80.09
81352;BME280;70809;52.184;13.422;2024-01-11T00:04:51;102867.84;;;-9.36;79.63
81352;BME280;70809;52.184;13.422;2024-01-11T00:05:52;102875.25;;;-9.24;79.43
81352;BME280;70809;52.184;13.422;2024-01-11T00:06:54;102879.34;;;-9.59;79.29
81352;BME280;70809;52.184;13.422;2024-01-11T00:07:56;102867.75;;;-9.90;80.55
81352;BME280;70809;52.184;13.422;2024-01-11T00:08:58;102880.38;;;-10.04;81.21
81352;BME280;70809;52.184;13.422;2024-01-11T00:10:00;102874.34;;;-10.04;81.30
81352;BME280;70809;52.184;13.422;2024-01-11T00:11:03;102886.28;;;-9.98;81.45
81352;BME280;70809;52.184;13.422;2024-01-11T00:12:05;102886.38;;;-9.91;81.24
81352;BME280;70809;52.184;13.422;2024-01-11T00:13:07;102880.59;;;-9.82;80.95
81352;BME280;70809;52.184;13.422;2024-01-11T00:14:09;102865.53;;;-9.94;80.94
81352;BME280;70809;52.184;13.422;2024-01-11T00:15:10;102868.41;;;-9.98;81.18
81352;BME280;70809;52.184;13.422;2024-01-11T00:16:12;102863.75;;;-9.87;81.01
81352;BME280;70809;52.184;13.422;2024-01-11T00:17:13;102855.34;;;-9.86;81.10
81352;BME280;70809;52.184;13.422;2024-01-11T00:18:15;102859.06;;;-9.84;80.84
81352;BME280;70809;52.184;13.422;2024-01-11T00:19:17;102853.88;;;-9.92;80.93
81352;BME280;70809;52.184;13.422;2024-01-11T00:20:19;102856.56;;;-9.77;80.90
81352;BME280;70809;52.184;13.422;2024-01-11T00:21:20;102855.25;;;-9.61;80.42
81352;BME280;70809;52.184;13.422;2024-01-11T00:22:22;102850.94;;;-9.48;80.39
81352;BME280;70809;52.184;13.422;2024-01-11T00:23:23;102844.25;;;-9.40;80.19
81352;BME280;70809;52.184;13.422;2024-01-11T00:24:25;102845.66;;;-9.49;79.82
81352;BME280;70809;52.184;13.422;2024-01-11T00:25:27;102843.22;;;-9.55;79.77
81352;BME280;70809;52.184;13.422;2024-01-11T00:26:30;102839.84;;;-9.68;79.66
81352;BME280;70809;52.184;13.422;2024-01-11T00:27:31;102842.38;;;-9.88;79.97
81352;BME280;70809;52.184;13.422;2024-01-11T00:28:33;102834.78;;;-10.01;81.13
81352;BME280;70809;52.184;13.422;2024-01-11T00:29:35;102834.00;;;-10.07;81.50
81352;BME280;70809;52.184;13.422;2024-01-11T00:30:37;102840.69;;;-9.95;81.08
81352;BME280;70809;52.184;13.422;2024-01-11T00:31:39;102841.09;;;-9.92;81.33
81352;BME280;70809;52.184;13.422;2024-01-11T00:32:40;102839.06;;;-10.14;81.12
81352;BME280;70809;52.184;13.422;2024-01-11T00:33:42;102837.81;;;-10.30;81.91
81352;BME280;70809;52.184;13.422;2024-01-11T00:34:44;102838.84;;;-10.35;82.54
81352;BME280;70809;52.184;13.422;2024-01-11T00:35:45;102837.53;;;-10.19;82.40
81352;BME280;70809;52.184;13.422;2024-01-11T00:36:47;102848.34;;;-9.95;82.42
81352;BME280;70809;52.184;13.422;2024-01-11T00:37:49;102843.44;;;-9.73;82.31
81352;BME280;70809;52.184;13.422;2024-01-11T00:38:50;102836.78;;;-9.58;81.87
81352;BME280;70809;52.184;13.422;2024-01-11T00:39:52;102838.16;;;-9.48;81.54
81352;BME280;70809;52.184;13.422;2024-01-11T00:40:54;102844.78;;;-9.43;80.82
81352;BME280;70809;52.184;13.422;2024-01-11T00:41:57;102842.91;;;-9.51;80.67
81352;BME280;70809;52.184;13.422;2024-01-11T00:42:58;102853.78;;;-9.59;80.49
81352;BME280;70809;52.184;13.422;2024-01-11T00:44:00;102846.47;;;-9.63;81.11
81352;BME280;70809;52.184;13.422;2024-01-11T00:45:02;102848.03;;;-9.51;81.16
81352;BME280;70809;52.184;13.422;2024-01-11T00:46:04;102854.69;;;-9.39;80.81
81352;BME280;70809;52.184;13.422;2024-01-11T00:47:05;102843.94;;;-9.29;80.31
81352;BME280;70809;52.184;13.422;2024-01-11T00:48:07;102847.78;;;-9.32;79.33
81352;BME280;70809;52.184;13.422;2024-01-11T00:49:09;102854.41;;;-9.27;79.55
81352;BME280;70809;52.184;13.422;2024-01-11T00:50:11;102852.16;;;-9.31;78.75
81352;BME280;70809;52.184;13.422;2024-01-11T00:51:12;102844.00;;;-9.49;78.52
81352;BME280;70809;52.184;13.422;2024-01-11T00:52:14;102842.91;;;-9.51;79.43
81352;BME280;70809;52.184;13.422;2024-01-11T00:53:15;102842.34;;;-9.48;78.83
81352;BME280;70809;52.184;13.422;2024-01-11T00:54:17;102848.44;;;-9.41;78.62
81352;BME280;70809;52.184;13.422;2024-01-11T00:55:19;102850.16;;;-9.34;78.44
81352;BME280;70809;52.184;13.422;2024-01-11T00:56:21;102852.16;;;-9.31;78.61
81352;BME280;70809;52.184;13.422;2024-01-11T00:57:24;102860.91;;;-9.37;78.52
81352;BME280;70809;52.184;13.422;2024-01-11T00:58:25;102847.22;;;-9.30;78.61
81352;BME280;70809;52.184;13.422;2024-01-11T00:59:27;102856.25;;;-9.19;78.49
81352;BME280;70809;52.184;13.422;2024-01-11T01:00:29;102842.34;;;-9.28;77.46
81352;BME280;70809;52.184;13.422;2024-01-11T01:01:30;102842.00;;;-9.51;77.96
81352;BME280;70809;52.184;13.422;2024-01-11T01:02:32;102830.81;;;-9.52;77.91
81352;BME280;70809;52.184;13.422;2024-01-11T01:03:34;102826.41;;;-9.53;77.97
81352;BME280;70809;52.184;13.422;2024-01-11T01:04:37;102823.00;;;-9.73;78.13
81352;BME280;70809;52.184;13.422;2024-01-11T01:05:39;102814.47;;;-9.86;78.63
81352;BME280;70809;52.184;13.422;2024-01-11T01:06:41;102827.66;;;-9.83;79.28
81352;BME280;70809;52.184;13.422;2024-01-11T01:07:43;102817.50;;;-9.96;79.61
81352;BME280;70809;52.184;13.422;2024-01-11T01:08:44;102823.25;;;-9.84;80.20
81352;BME280;70809;52.184;13.422;2024-01-11T01:09:46;102813.13;;;-9.70;79.68
81352;BME280;70809;52.184;13.422;2024-01-11T01:10:48;102811.44;;;-9.77;79.04
81352;BME280;70809;52.184;13.422;2024-01-11T01:11:49;102807.66;;;-9.73;80.06
81352;BME280;70809;52.184;13.422;2024-01-11T01:12:52;102811.75;;;-9.61;79.72
81352;BME280;70809;52.184;13.422;2024-01-11T01:13:54;102798.66;;;-9.57;79.24
81352;BME280;70809;52.184;13.422;2024-01-11T01:14:55;102798.44;;;-9.58;79.14
81352;BME280;70809;52.184;13.422;2024-01-11T01:15:57;102803.94;;;-9.55;79.60
81352;BME280;70809;52.184;13.422;2024-01-11T01:16:59;102812.75;;;-9.46;79.07
81352;BME280;70809;52.184;13.422;2024-01-11T01:18:00;102826.34;;;-9.40;78.58
81352;BME280;70809;52.184;13.422;2024-01-11T01:19:03;102830.00;;;-9.38;79.86
81352;BME280;70809;52.184;13.422;2024-01-11T01:20:06;102827.56;;;-9.51;79.77
81352;BME280;70809;52.184;13.422;2024-01-11T01:21:08;102826.28;;;-9.47;79.82
81352;BME280;70809;52.184;13.422;2024-01-11T01:22:10;102823.56;;;-9.42;79.91
81352;BME280;70809;52.184;13.422;2024-01-11T01:23:12;102825.34;;;-9.28;80.15
81352;BME280;70809;52.184;13.422;2024-01-11T01:24:13;102833.41;;;-9.18;79.75
81352;BME280;70809;52.184;13.422;2024-01-11T01:25:15;102830.53;;;-9.14;79.29
81352;BME280;70809;52.184;13.422;2024-01-11T01:26:16;102836.34;;;-9.22;78.15
81352;BME280;70809;52.184;13.422;2024-01-11T01:27:18;102830.19;;;-9.37;78.44
81352;BME280;70809;52.184;13.422;2024-01-11T01:28:21;102826.97;;;-9.28;78.79
81352;BME280;70809;52.184;13.422;2024-01-11T01:29:23;102819.31;;;-9.28;78.52
81352;BME280;70809;52.184;13.422;2024-01-11T01:30:24;102822.97;;;-9.26;78.24
81352;BME280;70809;52.184;13.422;2024-01-11T01:31:26;102824.59;;;-9.27;77.68
81352;BME280;70809;52.184;13.422;2024-01-11T01:32:28;102828.41;;;-9.30;78.64
81352;BME280;70809;52.184;13.422;2024-01-11T01:33:29;102824.34;;;-9.36;78.90
81352;BME280;70809;52.184;13.422;2024-01-11T01:34:31;102813.47;;;-9.27;78.91
81352;BME280;70809;52.184;13.422;2024-01-11T01:35:33;102807.06;;;-9.24;78.53
81352;BME280;70809;52.184;13.422;2024-01-11T01:36:35;102795.19;;;-9.23;78.46
81352;BME280;70809;52.184;13.422;2024-01-11T01:37:36;102800.28;;;-9.23;78.37
81352;BME280;70809;52.184;13.422;2024-01-11T01:38:38;102817.53;;;-9.15;78.72
81352;BME280;70809;52.184;13.422;2024-01-11T01:39:39;102813.59;;;-9.33;78.14
81352;BME280;70809;52.184;13.422;2024-01-11T01:40:41;102805.22;;;-9.25;78.38
81352;BME280;70809;52.184;13.422;2024-01-11T01:41:43;102794.88;;;-9.12;79.06
81352;BME280;70809;52.184;13.422;2024-01-11T01:42:45;102787.31;;;-9.25;78.32
81352;BME280;70809;52.184;13.422;2024-01-11T01:43:48;102780.81;;;-9.16;78.55
81352;BME280;70809;52.184;13.422;2024-01-11T01:44:50;102784.75;;;-9.25;78.19
81352;BME280;70809;52.184;13.422;2024-01-11T01:45:52;102789.00;;;-9.18;78.30
81352;BME280;70809;52.184;13.422;2024-01-11T01:46:54;102797.22;;;-9.48;78.59
81352;BME280;70809;52.184;13.422;2024-01-11T01:47:56;102799.13;;;-9.40;79.46
81352;BME280;70809;52.184;13.422;2024-01-11T01:48:58;102793.31;;;-9.31;80.12
81352;BME280;70809;52.184;13.422;2024-01-11T01:50:00;102799.50;;;-9.37;80.05
81352;BME280;70809;52.184;13.422;2024-01-11T01:51:02;102788.31;;;-9.44;80.53
81352;BME280;70809;52.184;13.422;2024-01-11T01:52:05;102783.63;;;-9.34;80.56
81352;BME280;70809;52.184;13.422;2024-01-11T01:53:08;102785.31;;;-9.27;80.39
81352;BME280;70809;52.184;13.422;2024-01-11T01:54:10;102779.81;;;-9.23;79.69
81352;BME280;70809;52.184;13.422;2024-01-11T01:55:15;102777.63;;;-9.27;79.50
81352;BME280;70809;52.184;13.422;2024-01-11T01:56:18;102771.81;;;-9.19;79.47
81352;BME280;70809;52.184;13.422;2024-01-11T01:57:20;102776.25;;;-9.11;79.43
81352;BME280;70809;52.184;13.422;2024-01-11T01:58:22;102774.81;;;-9.02;79.38
81352;BME280;70809;52.184;13.422;2024-01-11T01:59:25;102775.94;;;-9.00;78.86
81352;BME280;70809;52.184;13.422;2024-01-11T02:00:29;102763.34;;;-8.98;78.62
81352;BME280;70809;52.184;13.422;2024-01-11T02:01:30;102758.41;;;-8.90;78.82
81352;BME280;70809;52.184;13.422;2024-01-11T02:02:34;102764.25;;;-8.98;78.35
81352;BME280;70809;52.184;13.422;2024-01-11T02:03:36;102770.84;;;-9.00;78.20
81352;BME280;70809;52.184;13.422;2024-01-11T02:04:38;102768.63;;;-8.97;78.12
81352;BME280;70809;52.184;13.422;2024-01-11T02:05:40;102773.19;;;-9.36;77.49
81352;BME280;70809;52.184;13.422;2024-01-11T02:06:43;102772.78;;;-9.73;78.93
81352;BME280;70809;52.184;13.422;2024-01-11T02:07:46;102769.59;;;-9.84;79.78
81352;BME280;70809;52.184;13.422;2024-01-11T02:08:48;102772.66;;;-9.60;80.76
81352;BME280;70809;52.184;13.422;2024-01-11T02:09:52;102771.69;;;-9.41;80.93
81352;BME280;70809;52.184;13.422;2024-01-11T02:10:54;102772.13;;;-9.30;80.26
81352;BME280;70809;52.184;13.422;2024-01-11T02:11:56;102774.22;;;-9.48;80.73
81352;BME280;70809;52.184;13.422;2024-01-11T02:12:58;102775.03;;;-9.34;80.91
81352;BME280;70809;52.184;13.422;2024-01-11T02:14:00;102770.00;;;-9.20;81.14
81352;BME280;70809;52.184;13.422;2024-01-11T02:15:04;102770.41;;;-9.10;80.28
81352;BME280;70809;52.184;13.422;2024-01-11T02:16:06;102770.59;;;-9.08;80.25
81352;BME280;70809;52.184;13.422;2024-01-11T02:17:07;102765.66;;;-9.07;80.34
81352;BME280;70809;52.184;13.422;2024-01-11T02:18:10;102781.94;;;-9.06;79.77
81352;BME280;70809;52.184;13.422;2024-01-11T02:19:13;102773.91;;;-9.02;80.14
81352;BME280;70809;52.184;13.422;2024-01-11T02:20:15;102777.22;;;-8.96;79.55
81352;BME280;70809;52.184;13.422;2024-01-11T02:21:16;102788.19;;;-8.97;78.90
81352;BME280;70809;52.184;13.422;2024-01-11T02:22:20;102797.03;;;-9.22;78.74
81352;BME280;70809;52.184;13.422;2024-01-11T02:23:24;102787.25;;;-9.39;79.02
81352;BME280;70809;52.184;13.422;2024-01-11T02:24:29;102782.78;;;-9.47;79.68
81352;BME280;70809;52.184;13.422;2024-01-11T02:25:31;102789.97;;;-9.45;79.78
81352;BME280;70809;52.184;13.422;2024-01-11T02:26:33;102792.75;;;-9.36;79.57
81352;BME280;70809;52.184;13.422;2024-01-11T02:27:45;102772.09;;;-9.38;79.61
81352;BME280;70809;52.184;13.422;2024-01-11T02:28:46;102764.66;;;-9.56;79.00
81352;BME280;70809;52.184;13.422;2024-01-11T02:29:48;102761.75;;;-9.52;79.50
81352;BME280;70809;52.184;13.422;2024-01-11T02:30:50;102778.06;;;-9.71;78.92
81352;BME280;70809;52.184;13.422;2024-01-11T02:31:51;102781.25;;;-9.59;79.73
81352;BME280;70809;52.184;13.422;2024-01-11T02:32:53;102786.34;;;-9.40;80.09
81352;BME280;70809;52.184;13.422;2024-01-11T02:33:55;102791.53;;;-9.25;80.25
81352;BME280;70809;52.184;13.422;2024-01-11T02:34:57;102798.53;;;-9.44;80.04
81352;BME280;70809;52.184;13.422;2024-01-11T02:35:59;102796.78;;;-9.58;80.41
81352;BME280;70809;52.184;13.422;2024-01-11T02:37:01;102796.22;;;-9.63;80.32
81352;BME280;70809;52.184;13.422;2024-01-11T02:38:03;102781.25;;;-9.59;80.46
81352;BME280;70809;52.184;13.422;2024-01-11T02:39:05;102784.28;;;-9.69;80.54
81352;BME280;70809;52.184;13.422;2024-01-11T02:40:09;102785.00;;;-9.70;80.88
81352;BME280;70809;52.184;13.422;2024-01-11T02:41:11;102783.44;;;-9.63;80.53
81352;BME280;70809;52.184;13.422;2024-01-11T02:42:13;102782.69;;;-9.69;79.79
81352;BME280;70809;52.184;13.422;2024-01-11T02:43:14;102794.03;;;-9.59;80.01
81352;BME280;70809;52.184;13.422;2024-01-11T02:44:16;102806.53;;;-9.48;79.99
81352;BME280;70809;52.184;13.422;2024-01-11T02:45:18;102809.66;;;-9.51;79.32
81352;BME280;70809;52.184;13.422;2024-01-11T02:46:19;102799.28;;;-9.45;79.76
81352;BME280;70809;52.184;13.422;2024-01-11T02:47:21;102806.25;;;-9.37;79.96
81352;BME280;70809;52.184;13.422;2024-01-11T02:48:22;102809.97;;;-9.28;79.75
81352;BME280;70809;52.184;13.422;2024-01-11T02:49:28;102806.28;;;-9.30;78.90
81352;BME280;70809;52.184;13.422;2024-01-11T02:50:30;102811.00;;;-9.40;78.13
81352;BME280;70809;52.184;13.422;2024-01-11T02:51:32;102814.53;;;-9.52;78.40
81352;BME280;70809;52.184;13.422;2024-01-11T02:52:33;102806.38;;;-9.50;78.30
81352;BME280;70809;52.184;13.422;2024-01-11T02:53:35;102808.81;;;-9.37;78.55
81352;BME280;70809;52.184;13.422;2024-01-11T02:54:37;102817.66;;;-9.28;78.95
81352;BME280;70809;52.184;13.422;2024-01-11T02:55:40;102819.00;;;-9.17;78.48
81352;BME280;70809;52.184;13.422;2024-01-11T02:56:41;102826.00;;;-9.09;78.35
81352;BME280;70809;52.184;13.422;2024-01-11T02:57:43;102819.63;;;-9.05;77.94
81352;BME280;70809;52.184;13.422;2024-01-11T02:58:45;102826.19;;;-9.00;77.66
81352;BME280;70809;52.184;13.422;2024-01-11T02:59:46;102820.91;;;-9.02;77.52
81352;BME280;70809;52.184;13.422;2024-01-11T03:00:48;102817.59;;;-9.08;77.10
81352;BME280;70809;52.184;13.422;2024-01-11T03:01:50;102824.34;;;-9.08;77.30
81352;BME280;70809;52.184;13.422;2024-01-11T03:02:51;102823.03;;;-9.12;76.32
81352;BME280;70809;52.184;13.422;2024-01-11T03:03:53;102820.84;;;-9.16;76.34
81352;BME280;70809;52.184;13.422;2024-01-11T03:04:55;102824.16;;;-9.37;76.51
81352;BME280;70809;52.184;13.422;2024-01-11T03:05:57;102828.19;;;-9.39;77.16
81352;BME280;70809;52.184;13.422;2024-01-11T03:06:59;102831.16;;;-9.29;76.84
81352;BME280;70809;52.184;13.422;2024-01-11T03:08:00;102821.88;;;-9.28;76.67
81352;BME280;70809;52.184;13.422;2024-01-11T03:09:02;102828.09;;;-9.26;76.97
81352;BME280;70809;52.184;13.422;2024-01-11T03:10:04;102819.53;;;-9.47;77.10
81352;BME280;70809;52.184;13.422;2024-01-11T03:11:07;102815.47;;;-9.52;77.30
81352;BME280;70809;52.184;13.422;2024-01-11T03:12:09;102805.81;;;-9.74;77.51
81352;BME280;70809;52.184;13.422;2024-01-11T03:13:10;102821.28;;;-10.20;78.46
81352;BME280;70809;52.184;13.422;2024-01-11T03:14:12;102814.91;;;-10.23;79.91
81352;BME280;70809;52.184;13.422;2024-01-11T03:15:14;102819.00;;;-10.11;79.92
81352;BME280;70809;52.184;13.422;2024-01-11T03:16:16;102816.97;;;-9.94;79.47
81352;BME280;70809;52.184;13.422;2024-01-11T03:17:18;102818.00;;;-9.79;79.45
81352;BME280;70809;52.184;13.422;2024-01-11T03:18:19;102824.69;;;-9.67;79.18
81352;BME280;70809;52.184;13.422;2024-01-11T03:19:21;102833.72;;;-9.56;78.65
81352;BME280;70809;52.184;13.422;2024-01-11T03:20:23;102815.69;;;-9.50;78.47
81352;BME280;70809;52.184;13.422;2024-01-11T03:21:24;102814.53;;;-9.52;77.53
81352;BME280;70809;52.184;13.422;2024-01-11T03:22:26;102815.72;;;-9.43;77.73
81352;BME280;70809;52.184;13.422;2024-01-11T03:23:28;102802.66;;;-9.52;76.69
81352;BME280;70809;52.184;13.422;2024-01-11T03:24:29;102795.41;;;-9.49;77.50
81352;BME280;70809;52.184;13.422;2024-01-11T03:25:31;102793.66;;;-9.36;77.70
81352;BME280;70809;52.184;13.422;2024-01-11T03:26:34;102790.75;;;-9.31;76.97
81352;BME280;70809;52.184;13.422;2024-01-11T03:27:35;102789.66;;;-9.33;77.08
81352;BME280;70809;52.184;13.422;2024-01-11T03:28:37;102785.50;;;-9.26;77.03
81352;BME280;70809;52.184;13.422;2024-01-11T03:29:39;102773.28;;;-9.21;76.87
81352;BME280;70809;52.184;13.422;2024-01-11T03:30:40;102787.16;;;-9.19;76.40
81352;BME280;70809;52.184;13.422;2024-01-11T03:31:42;102787.31;;;-9.25;76.07
81352;BME280;70809;52.184;13.422;2024-01-11T03:32:44;102804.13;;;-9.27;75.71
81352;BME280;70809;52.184;13.422;2024-01-11T03:33:46;102786.22;;;-9.27;76.82
81352;BME280;70809;52.184;13.422;2024-01-11T03:34:47;102799.13;;;-9.40;77.27
81352;BME280;70809;52.184;13.422;2024-01-11T03:35:49;102794.19;;;-9.38;77.50
81352;BME280;70809;52.184;13.422;2024-01-11T03:36:50;102787.69;;;-9.56;77.65
81352;BME280;70809;52.184;13.422;2024-01-11T03:37:52;102781.41;;;-9.65;78.25
81352;BME280;70809;52.184;13.422;2024-01-11T03:38:54;102786.91;;;-9.62;78.86
81352;BME280;70809;52.184;13.422;2024-01-11T03:39:55;102787.97;;;-9.67;78.39
81352;BME280;70809;52.184;13.422;2024-01-11T03:40:57;102791.81;;;-9.64;78.04
81352;BME280;70809;52.184;13.422;2024-01-11T03:42:00;102791.72;;;-9.98;78.25
81352;BME280;70809;52.184;13.422;2024-01-11T03:43:01;102793.78;;;-9.95;78.91
81352;BME280;70809;52.184;13.422;2024-01-11T03:44:03;102809.16;;;-9.88;79.56
81352;BME280;70809;52.184;13.422;2024-01-11T03:45:06;102803.91;;;-9.82;80.14
81352;BME280;70809;52.184;13.422;2024-01-11T03:46:07;102796.09;;;-9.77;80.28
81352;BME280;70809;52.184;13.422;2024-01-11T03:47:09;102801.34;;;-9.63;80.05
81352;BME280;70809;52.184;13.422;2024-01-11T03:48:11;102801.09;;;-9.71;79.64
81352;BME280;70809;52.184;13.422;2024-01-11T03:49:12;102809.44;;;-9.52;79.95
81352;BME280;70809;52.184;13.422;2024-01-11T03:50:14;102818.34;;;-9.63;79.79
81352;BME280;70809;52.184;13.422;2024-01-11T03:51:16;102807.41;;;-9.55;79.80
81352;BME280;70809;52.184;13.422;2024-01-11T03:52:17;102804.84;;;-9.55;79.90
81352;BME280;70809;52.184;13.422;2024-01-11T03:53:19;102794.31;;;-9.51;79.61
81352;BME280;70809;52.184;13.422;2024-01-11T03:54:21;102806.38;;;-9.50;79.62
81352;BME280;70809;52.184;13.422;2024-01-11T03:55:22;102797.56;;;-9.52;78.69
81352;BME280;70809;52.184;13.422;2024-01-11T03:56:24;102799.91;;;-9.33;79.31
81352;BME280;70809;52.184;13.422;2024-01-11T03:57:27;102804.66;;;-9.29;78.58
81352;BME280;70809;52.184;13.422;2024-01-11T03:58:29;102796.66;;;-9.25;78.70
81352;BME280;70809;52.184;13.422;2024-01-11T03:59:30;102793.03;;;-9.20;78.24
81352;BME280;70809;52.184;13.422;2024-01-11T04:00:32;102798.72;;;-9.16;78.11
81352;BME280;70809;52.184;13.422;2024-01-11T04:01:39;102800.22;;;-9.11;77.93
81352;BME280;70809;52.184;13.422;2024-01-11T04:02:40;102793.81;;;-9.07;77.76
81352;BME280;70809;52.184;13.422;2024-01-11T04:03:42;102792.38;;;-9.05;77.54
81352;BME280;70809;52.184;13.422;2024-01-11T04:04:44;102791.97;;;-9.08;77.12
81352;BME280;70809;52.184;13.422;2024-01-11T04:05:45;102795.25;;;-9.43;77.60
81352;BME280;70809;52.184;13.422;2024-01-11T04:06:47;102790.22;;;-9.63;78.65
81352;BME280;70809;52.184;13.422;2024-01-11T04:07:51;102783.34;;;-9.50;78.49
81352;BME280;70809;52.184;13.422;2024-01-11T04:08:53;102778.22;;;-9.50;78.34
81352;BME280;70809;52.184;13.422;2024-01-11T04:09:54;102783.34;;;-9.50;78.40
81352;BME280;70809;52.184;13.422;2024-01-11T04:10:56;102779.94;;;-9.36;78.73
81352;BME280;70809;52.184;13.422;2024-01-11T04:11:57;102775.34;;;-9.46;78.84
81352;BME280;70809;52.184;13.422;2024-01-11T04:13:00;102765.78;;;-9.54;78.86
81352;BME280;70809;52.184;13.422;2024-01-11T04:14:02;102766.97;;;-9.65;79.07
81352;BME280;70809;52.184;13.422;2024-01-11T04:15:04;102765.31;;;-9.64;80.42
81352;BME280;70809;52.184;13.422;2024-01-11T04:16:07;102766.47;;;-9.62;79.89
81352;BME280;70809;52.184;13.422;2024-01-11T04:17:08;102763.47;;;-9.72;79.48
81352;BME280;70809;52.184;13.422;2024-01-11T04:18:10;102757.81;;;-9.70;80.78
81352;BME280;70809;52.184;13.422;2024-01-11T04:19:12;102746.38;;;-9.59;81.27
81352;BME280;70809;52.184;13.422;2024-01-11T04:20:14;102748.34;;;-9.64;81.17
81352;BME280;70809;52.184;13.422;2024-01-11T04:21:20;102744.19;;;-9.63;81.46
81352;BME280;70809;52.184;13.422;2024-01-11T04:22:22;102744.34;;;-9.61;81.67
81352;BME280;70809;52.184;13.422;2024-01-11T04:23:23;102747.53;;;-9.50;81.78
81352;BME280;70809;52.184;13.422;2024-01-11T04:24:25;102735.91;;;-9.68;81.44
81352;BME280;70809;52.184;13.422;2024-01-11T04:25:27;102750.09;;;-9.77;82.19
81352;BME280;70809;52.184;13.422;2024-01-11T04:26:28;102750.63;;;-9.79;82.45
81352;BME280;70809;52.184;13.422;2024-01-11T04:27:30;102748.00;;;-9.86;82.42
81352;BME280;70809;52.184;13.422;2024-01-11T04:28:33;102754.00;;;-10.13;84.19
81352;BME280;70809;52.184;13.422;2024-01-11T04:29:35;102758.41;;;-10.12;85.55
81352;BME280;70809;52.184;13.422;2024-01-11T04:30:36;102769.22;;;-10.07;85.36
81352;BME280;70809;52.184;13.422;2024-01-11T04:31:38;102767.88;;;-9.91;85.62
81352;BME280;70809;52.184;13.422;2024-01-11T04:32:39;102774.19;;;-10.02;85.63
81352;BME280;70809;52.184;13.422;2024-01-11T04:33:41;102776.34;;;-9.85;85.92
81352;BME280;70809;52.184;13.422;2024-01-11T04:34:43;102784.25;;;-9.76;85.78
81352;BME280;70809;52.184;13.422;2024-01-11T04:35:45;102778.75;;;-9.99;85.92
81352;BME280;70809;52.184;13.422;2024-01-11T04:36:46;102776.38;;;-10.25;86.59
81352;BME280;70809;52.184;13.422;2024-01-11T04:37:48;102781.09;;;-10.28;87.68
81352;BME280;70809;52.184;13.422;2024-01-11T04:38:49;102797.91;;;-10.03;87.56
81352;BME280;70809;52.184;13.422;2024-01-11T04:39:51;102792.91;;;-9.69;87.34
81352;BME280;70809;52.184;13.422;2024-01-11T04:40:52;102787.16;;;-9.80;86.09
81352;BME280;70809;52.184;13.422;2024-01-11T04:41:54;102781.44;;;-9.58;85.86
81352;BME280;70809;52.184;13.422;2024-01-11T04:42:56;102784.84;;;-9.45;85.54
81352;BME280;70809;52.184;13.422;2024-01-11T04:43:58;102781.88;;;-9.48;84.97
81352;BME280;70809;52.184;13.422;2024-01-11T04:45:00;102771.22;;;-9.31;84.80
81352;BME280;70809;52.184;13.422;2024-01-11T04:46:02;102773.59;;;-9.32;84.27
81352;BME280;70809;52.184;13.422;2024-01-11T04:47:04;102763.59;;;-9.51;84.34
81352;BME280;70809;52.184;13.422;2024-01-11T04:48:06;102763.13;;;-9.68;84.02
81352;BME280;70809;52.184;13.422;2024-01-11T04:49:07;102759.81;;;-9.74;84.39
81352;BME280;70809;52.184;13.422;2024-01-11T04:50:09;102749.22;;;-9.97;84.78
81352;BME280;70809;52.184;13.422;2024-01-11T04:51:12;102767.22;;;-10.30;86.43
81352;BME280;70809;52.184;13.422;2024-01-11T04:52:14;102775.44;;;-10.45;87.67
81352;BME280;70809;52.184;13.422;2024-01-11T04:53:16;102781.56;;;-10.37;88.43
81352;BME280;70809;52.184;13.422;2024-01-11T04:54:17;102776.91;;;-10.27;88.16
81352;BME280;70809;52.184;13.422;2024-01-11T04:55:19;102781.88;;;-10.41;87.97
81352;BME280;70809;52.184;13.422;2024-01-11T04:56:21;102788.13;;;-10.52;88.90
81352;BME280;70809;52.184;13.422;2024-01-11T04:57:23;102794.69;;;-10.54;89.61
81352;BME280;70809;52.184;13.422;2024-01-11T04:58:24;102783.56;;;-10.55;89.72
81352;BME280;70809;52.184;13.422;2024-01-11T04:59:27;102798.53;;;-10.51;89.96
81352;BME280;70809;52.184;13.422;2024-01-11T05:00:29;102799.81;;;-10.34;89.51
81352;BME280;70809;52.184;13.422;2024-01-11T05:01:30;102801.50;;;-10.48;89.45
81352;BME280;70809;52.184;13.422;2024-01-11T05:02:32;102801.19;;;-10.43;89.32
81352;BME280;70809;52.184;13.422;2024-01-11T05:03:34;102805.47;;;-10.50;89.51
81352;BME280;70809;52.184;13.422;2024-01-11T05:04:35;102808.75;;;-10.51;89.72
81352;BME280;70809;52.184;13.422;2024-01-11T05:05:37;102813.63;;;-10.20;89.46
81352;BME280;70809;52.184;13.422;2024-01-11T05:06:38;102806.38;;;-9.97;88.87
81352;BME280;70809;52.184;13.422;2024-01-11T05:07:40;102811.38;;;-10.31;88.68
81352;BME280;70809;52.184;13.422;2024-01-11T05:08:42;102806.84;;;-10.26;89.00
81352;BME280;70809;52.184;13.422;2024-01-11T05:09:44;102787.47;;;-10.31;89.00
81352;BME280;70809;52.184;13.422;2024-01-11T05:10:46;102782.59;;;-10.03;88.83
81352;BME280;70809;52.184;13.422;2024-01-11T05:11:47;102778.44;;;-9.95;87.89
81352;BME280;70809;52.184;13.422;2024-01-11T05:12:49;102774.69;;;-10.31;88.21
81352;BME280;70809;52.184;13.422;2024-01-11T05:13:51;102768.91;;;-10.23;88.29
81352;BME280;70809;52.184;13.422;2024-01-11T05:14:54;102772.44;;;-10.35;88.28
81352;BME280;70809;52.184;13.422;2024-01-11T05:15:56;102772.44;;;-10.35;88.72
81352;BME280;70809;52.184;13.422;2024-01-11T05:16:58;102773.75;;;-10.52;89.80
81352;BME280;70809;52.184;13.422;2024-01-11T05:18:00;102770.28;;;-10.32;89.35
81352;BME280;70809;52.184;13.422;2024-01-11T05:19:01;102777.31;;;-10.24;89.38